createdAt,value
2018-08-19T00:01:10.308Z,97.10
2018-08-19T00:03:38.760Z,97.00
2018-08-19T00:06:07.341Z,97.00
2018-08-19T00:08:35.772Z,97.00
2018-08-19T00:11:05.999Z,96.90
2018-08-19T00:13:35.364Z,97.00
2018-08-19T00:16:04.084Z,97.10
2018-08-19T00:18:33.218Z,97.20
2018-08-19T00:21:01.770Z,97.40
2018-08-19T00:23:34.898Z,97.50
2018-08-19T00:26:03.855Z,97.30
2018-08-19T00:28:32.217Z,97.40
2018-08-19T00:31:00.689Z,97.30
2018-08-19T00:33:29.084Z,97.20
2018-08-19T00:35:57.498Z,97.00
2018-08-19T00:38:25.810Z,96.90
2018-08-19T00:40:54.171Z,96.80
2018-08-19T00:43:23.341Z,96.90
2018-08-19T00:45:51.762Z,97.00
2018-08-19T00:48:20.074Z,97.00
2018-08-19T00:50:48.535Z,97.10
2018-08-19T00:53:16.895Z,97.20
2018-08-19T00:55:49.385Z,97.30
2018-08-19T00:58:19.501Z,97.50
2018-08-19T01:00:47.953Z,97.80
2018-08-19T01:03:16.279Z,97.80
2018-08-19T01:05:44.582Z,98.10
2018-08-19T01:08:14.050Z,98.20
2018-08-19T01:10:42.695Z,98.40
2018-08-19T01:13:12.170Z,98.30
2018-08-19T01:15:40.527Z,98.20
2018-08-19T01:18:09.015Z,98.00
2018-08-19T01:20:37.453Z,98.10
2018-08-19T01:23:05.850Z,98.40
2018-08-19T01:25:34.196Z,98.60
2018-08-19T01:28:02.620Z,98.80
2018-08-19T01:30:31.065Z,99.10
2018-08-19T01:32:59.528Z,99.30
2018-08-19T01:35:32.010Z,99.40
2018-08-19T01:38:00.567Z,99.40
2018-08-19T01:40:28.898Z,99.20
2018-08-19T01:42:57.322Z,99.20
2018-08-19T01:45:26.035Z,98.90
2018-08-19T01:47:54.341Z,98.90
2018-08-19T01:50:22.673Z,98.90
2018-08-19T01:52:51.147Z,98.90
2018-08-19T01:55:19.905Z,98.80
2018-08-19T01:57:49.441Z,99.00
2018-08-19T02:00:18.386Z,98.60
2018-08-19T02:02:56.799Z,98.60
2018-08-19T02:05:25.400Z,98.60
2018-08-19T02:07:56.674Z,98.50
2018-08-19T02:10:25.428Z,98.70
2018-08-19T02:12:55.117Z,98.60
2018-08-19T02:15:24.739Z,98.50
2018-08-19T02:17:57.452Z,98.60
2018-08-19T02:20:28.161Z,99.00
2018-08-19T02:22:58.434Z,99.10
2018-08-19T02:25:29.239Z,99.00
2018-08-19T02:27:57.643Z,99.00
2018-08-19T02:30:26.359Z,99.40
2018-08-19T02:32:55.701Z,99.40
2018-08-19T02:35:24.115Z,99.10
2018-08-19T02:37:52.449Z,98.90
2018-08-19T02:40:24.907Z,98.90
2018-08-19T02:42:53.302Z,98.80
2018-08-19T02:45:21.817Z,98.60
2018-08-19T02:47:50.116Z,98.50
2018-08-19T02:50:18.448Z,98.40
2018-08-19T02:52:46.750Z,98.40
2018-08-19T02:55:15.454Z,98.40
2018-08-19T02:57:43.795Z,98.50
2018-08-19T03:00:12.780Z,98.70
2018-08-19T03:02:42.272Z,98.90
2018-08-19T03:05:12.335Z,99.20
2018-08-19T03:07:40.993Z,99.40
2018-08-19T03:10:11.493Z,99.80
2018-08-19T03:12:40.479Z,99.60
2018-08-19T03:15:10.399Z,99.40
2018-08-19T03:17:39.211Z,99.30
2018-08-19T03:20:10.580Z,99.30
2018-08-19T03:22:39.043Z,99.30
2018-08-19T03:25:08.477Z,99.30
2018-08-19T03:27:36.821Z,99.50
2018-08-19T03:30:09.809Z,99.50
2018-08-19T03:32:46.174Z,99.40
2018-08-19T03:35:18.696Z,99.20
2018-08-19T03:37:47.376Z,99.00
2018-08-19T03:40:15.773Z,99.20
2018-08-19T03:42:44.157Z,98.80
2018-08-19T03:45:16.666Z,98.80
2018-08-19T03:47:45.558Z,98.90
2018-08-19T03:50:18.381Z,98.90
2018-08-19T03:52:46.678Z,98.90
2018-08-19T03:55:19.164Z,99.00
2018-08-19T03:57:48.397Z,99.20
2018-08-19T04:00:18.274Z,99.10
2018-08-19T04:02:46.658Z,99.00
2018-08-19T04:05:15.037Z,98.90
2018-08-19T04:07:44.128Z,99.10
2018-08-19T04:10:12.912Z,99.30
2018-08-19T04:12:41.306Z,99.10
2018-08-19T04:15:10.421Z,99.00
2018-08-19T04:17:39.089Z,98.90
2018-08-19T04:20:07.592Z,98.90
2018-08-19T04:22:36.017Z,98.90
2018-08-19T04:25:04.721Z,98.90
2018-08-19T04:27:33.087Z,98.80
2018-08-19T04:30:01.571Z,98.80
2018-08-19T04:32:31.962Z,98.90
2018-08-19T04:35:01.596Z,98.90
2018-08-19T04:37:30.268Z,98.90
2018-08-19T04:39:59.691Z,98.80
2018-08-19T04:42:28.033Z,98.60
2018-08-19T04:44:56.849Z,98.30
2018-08-19T04:47:28.370Z,98.20
2018-08-19T04:49:56.773Z,97.60
2018-08-19T04:52:25.481Z,97.70
2018-08-19T04:54:55.416Z,97.20
2018-08-19T04:57:23.861Z,96.70
2018-08-19T04:59:52.340Z,96.30
2018-08-19T05:02:21.176Z,96.10
2018-08-19T05:04:49.472Z,95.50
2018-08-19T05:07:17.824Z,95.10
2018-08-19T05:09:46.480Z,94.60
2018-08-19T05:12:15.352Z,94.30
2018-08-19T05:14:43.729Z,93.70
2018-08-19T05:17:12.587Z,93.30
2018-08-19T05:19:40.969Z,92.70
2018-08-19T05:22:13.218Z,91.80
2018-08-19T05:24:42.245Z,90.90
2018-08-19T05:27:10.777Z,90.30
2018-08-19T05:29:39.232Z,89.10
2018-08-19T05:32:12.841Z,88.10
2018-08-19T05:34:42.107Z,87.40
2018-08-19T05:37:10.602Z,85.90
2018-08-19T05:39:45.039Z,84.20
2018-08-19T05:42:14.029Z,82.60
2018-08-19T05:44:42.877Z,81.50
2018-08-19T05:47:12.695Z,80.90
2018-08-19T05:49:43.267Z,80.30
2018-08-19T05:52:15.909Z,78.30
2018-08-19T05:54:48.576Z,79.00
2018-08-19T05:57:17.615Z,77.10
2018-08-19T05:59:47.208Z,77.70
2018-08-19T06:02:16.259Z,76.00
2018-08-19T06:04:45.200Z,75.20
2018-08-19T06:07:16.717Z,73.20
2018-08-19T06:09:45.044Z,70.10
2018-08-19T06:12:13.429Z,68.60
2018-08-19T06:14:41.805Z,65.90
2018-08-19T06:17:10.164Z,65.00
2018-08-19T06:19:38.628Z,58.40
2018-08-19T06:22:07.330Z,49.50
2018-08-19T06:24:35.770Z,45.60
2018-08-19T06:27:04.028Z,44.10
2018-08-19T06:29:45.478Z,43.20
2018-08-19T06:32:20.695Z,41.80
2018-08-19T06:34:49.855Z,37.40
2018-08-19T06:37:18.917Z,34.70
2018-08-19T06:39:47.677Z,31.10
2018-08-19T06:42:16.092Z,29.90
2018-08-19T06:44:44.668Z,23.50
2018-08-19T06:47:13.164Z,22.20
2018-08-19T06:49:45.684Z,22.10
2018-08-19T06:52:14.393Z,20.50
2018-08-19T06:54:42.730Z,19.10
2018-08-19T06:57:11.419Z,19.00
2018-08-19T06:59:39.863Z,18.60
2018-08-19T07:02:08.678Z,18.00
2018-08-19T07:04:40.682Z,17.30
2018-08-19T07:07:11.020Z,17.50
2018-08-19T07:09:39.744Z,16.70
2018-08-19T07:12:16.334Z,15.80
2018-08-19T07:14:45.173Z,15.30
2018-08-19T07:17:13.701Z,14.50
2018-08-19T07:19:42.119Z,14.80
2018-08-19T07:22:14.004Z,13.50
2018-08-19T07:24:42.413Z,13.10
2018-08-19T07:27:11.094Z,11.50
2018-08-19T07:29:39.538Z,12.50
2018-08-19T07:32:08.855Z,10.40
2018-08-19T07:34:37.242Z,10.10
2018-08-19T07:37:05.715Z,9.80
2018-08-19T07:39:39.421Z,10.10
2018-08-19T07:42:08.181Z,10.60
2018-08-19T07:44:36.855Z,9.20
2018-08-19T07:47:05.330Z,9.10
2018-08-19T07:49:33.738Z,8.80
2018-08-19T07:52:02.243Z,7.90
2018-08-19T07:54:30.523Z,8.00
2018-08-19T07:57:03.289Z,7.60
2018-08-19T07:59:31.645Z,7.00
2018-08-19T08:02:00.045Z,6.10
2018-08-19T08:04:32.634Z,6.10
2018-08-19T08:07:01.013Z,6.00
2018-08-19T08:09:29.306Z,5.60
2018-08-19T08:11:57.665Z,5.80
2018-08-19T08:14:26.176Z,4.90
2018-08-19T08:16:55.043Z,4.20
2018-08-19T08:19:23.989Z,3.00
2018-08-19T08:21:54.337Z,2.80
2018-08-19T08:24:22.718Z,5.30
2018-08-19T08:26:55.224Z,5.90
2018-08-19T08:29:23.766Z,5.10
2018-08-19T08:31:56.546Z,5.80
2018-08-19T08:34:26.518Z,6.00
2018-08-19T08:36:58.885Z,5.20
2018-08-19T08:39:27.278Z,4.80
2018-08-19T08:41:56.807Z,5.10
2018-08-19T08:44:25.294Z,5.00
2018-08-19T08:46:54.243Z,4.30
2018-08-19T08:49:22.724Z,4.50
2018-08-19T08:51:51.148Z,4.00
2018-08-19T08:54:19.689Z,4.50
2018-08-19T08:56:48.072Z,5.70
2018-08-19T08:59:16.433Z,7.00
2018-08-19T09:01:44.835Z,6.10
2018-08-19T09:04:13.203Z,5.50
2018-08-19T09:06:41.613Z,6.90
2018-08-19T09:09:10.035Z,6.70
2018-08-19T09:11:38.443Z,6.10
2018-08-19T09:14:06.845Z,4.90
2018-08-19T09:16:35.319Z,4.20
2018-08-19T09:19:03.709Z,5.40
2018-08-19T09:21:32.183Z,5.60
2018-08-19T09:24:00.542Z,5.30
2018-08-19T09:26:28.874Z,4.20
2018-08-19T09:28:57.257Z,3.10
2018-08-19T09:31:26.184Z,1.80
2018-08-19T09:33:54.667Z,1.90
2018-08-19T09:36:23.136Z,2.80
2018-08-19T09:38:51.939Z,1.90
2018-08-19T09:41:20.233Z,2.10
2018-08-19T09:43:48.540Z,2.60
2018-08-19T09:46:16.859Z,2.60
2018-08-19T09:48:45.349Z,2.60
2018-08-19T09:51:15.918Z,2.40
2018-08-19T09:53:44.369Z,2.10
2018-08-19T09:56:12.787Z,1.10
2018-08-19T09:58:43.151Z,1.00
2018-08-19T10:01:15.767Z,1.00
2018-08-19T10:03:44.090Z,1.00
2018-08-19T10:06:12.457Z,1.00
2018-08-19T10:08:41.686Z,1.00
2018-08-19T10:11:09.990Z,1.00
2018-08-19T10:13:38.398Z,1.00
2018-08-19T10:16:06.734Z,1.00
2018-08-19T10:18:35.102Z,1.00
2018-08-19T10:21:07.644Z,1.00
2018-08-19T10:23:35.986Z,1.00
2018-08-19T10:26:04.381Z,1.00
2018-08-19T10:28:33.423Z,1.00
2018-08-19T10:31:02.153Z,1.00
2018-08-19T10:33:32.269Z,1.00
2018-08-19T10:36:00.742Z,1.00
2018-08-19T10:38:29.071Z,1.00
2018-08-19T10:41:01.705Z,1.00
2018-08-19T10:43:30.179Z,1.00
2018-08-19T10:45:58.509Z,1.00
2018-08-19T10:48:26.936Z,1.00
2018-08-19T10:50:55.373Z,1.40
2018-08-19T10:53:27.355Z,2.40
2018-08-19T10:56:01.457Z,2.60
2018-08-19T10:58:29.951Z,2.50
2018-08-19T11:00:58.298Z,2.10
2018-08-19T11:03:26.719Z,1.40
2018-08-19T11:05:56.296Z,1.50
2018-08-19T11:08:24.716Z,1.00
2018-08-19T11:10:53.093Z,1.00
2018-08-19T11:13:23.144Z,1.00
2018-08-19T11:15:53.402Z,1.00
2018-08-19T11:18:28.095Z,1.00
2018-08-19T11:21:01.742Z,1.00
2018-08-19T11:23:30.077Z,1.00
2018-08-19T11:25:58.985Z,1.00
2018-08-19T11:28:37.330Z,1.00
2018-08-19T11:31:06.684Z,1.00
2018-08-19T11:33:37.872Z,1.30
2018-08-19T11:36:06.411Z,1.30
2018-08-19T11:38:34.847Z,1.70
2018-08-19T11:41:05.064Z,1.00
2018-08-19T11:43:36.259Z,1.00
2018-08-19T11:46:05.616Z,1.00
2018-08-19T11:48:33.982Z,1.00
2018-08-19T11:51:05.960Z,1.00
2018-08-19T11:53:34.632Z,1.00
2018-08-19T11:56:03.068Z,1.00
2018-08-19T11:58:37.780Z,1.00
2018-08-19T12:01:08.534Z,1.00
2018-08-19T12:03:49.690Z,1.00
2018-08-19T12:06:19.016Z,1.00
2018-08-19T12:08:48.158Z,1.00
2018-08-19T12:11:18.786Z,1.00
2018-08-19T12:13:51.181Z,1.00
2018-08-19T12:16:21.308Z,1.00
2018-08-19T12:18:50.085Z,1.00
2018-08-19T12:21:18.598Z,1.00
2018-08-19T12:23:48.569Z,1.00
2018-08-19T12:26:16.956Z,1.00
2018-08-19T12:28:45.805Z,1.00
2018-08-19T12:31:15.987Z,1.00
2018-08-19T12:33:44.385Z,1.00
2018-08-19T12:36:12.742Z,1.00
2018-08-19T12:38:41.153Z,1.00
2018-08-19T12:41:09.603Z,1.00
2018-08-19T12:43:41.093Z,1.00
2018-08-19T12:46:09.484Z,1.00
2018-08-19T12:48:37.960Z,1.00
2018-08-19T12:51:06.360Z,1.00
2018-08-19T12:53:35.191Z,1.00
2018-08-19T12:56:03.575Z,1.00
2018-08-19T12:58:31.996Z,1.00
2018-08-19T13:01:00.405Z,1.00
2018-08-19T13:03:29.060Z,1.00
2018-08-19T13:06:02.825Z,1.00
2018-08-19T13:08:31.362Z,1.00
2018-08-19T13:11:05.543Z,1.00
2018-08-19T13:13:34.495Z,1.00
2018-08-19T13:16:02.941Z,1.00
2018-08-19T13:18:35.705Z,1.00
2018-08-19T13:21:08.174Z,1.00
2018-08-19T13:23:36.823Z,1.00
2018-08-19T13:26:05.429Z,1.00
2018-08-19T13:28:37.053Z,1.00
2018-08-19T13:31:05.912Z,1.00
2018-08-19T13:33:35.351Z,1.00
2018-08-19T13:36:04.221Z,1.00
2018-08-19T13:38:35.149Z,1.00
2018-08-19T13:41:05.734Z,1.00
2018-08-19T13:43:35.170Z,1.00
2018-08-19T13:46:04.142Z,1.00
2018-08-19T13:48:33.024Z,1.00
2018-08-19T13:51:01.907Z,1.00
2018-08-19T13:53:30.953Z,1.00
2018-08-19T13:55:59.370Z,1.00
2018-08-19T13:58:28.151Z,1.00
2018-08-19T14:00:56.595Z,1.00
2018-08-19T14:03:25.731Z,1.00
2018-08-19T14:05:54.155Z,1.00
2018-08-19T14:08:22.646Z,1.00
2018-08-19T14:10:51.059Z,1.00
2018-08-19T14:13:19.707Z,1.00
2018-08-19T14:15:48.161Z,1.00
2018-08-19T14:18:17.182Z,1.00
2018-08-19T14:20:45.648Z,1.00
2018-08-19T14:23:14.268Z,1.00
2018-08-19T14:25:42.995Z,1.00
2018-08-19T14:28:11.551Z,1.00
2018-08-19T14:30:40.152Z,1.00
2018-08-19T14:33:09.435Z,1.00
2018-08-19T14:35:38.039Z,1.00
2018-08-19T14:38:06.929Z,1.00
2018-08-19T14:40:35.489Z,1.00
2018-08-19T14:43:04.160Z,1.00
2018-08-19T14:45:33.286Z,1.00
2018-08-19T14:48:01.857Z,1.10
2018-08-19T14:50:30.430Z,1.00
2018-08-19T14:52:59.175Z,1.00
2018-08-19T14:55:27.764Z,1.00
2018-08-19T14:57:56.326Z,1.20
2018-08-19T15:00:25.148Z,1.00
2018-08-19T15:02:53.601Z,1.00
2018-08-19T15:05:22.025Z,1.00
2018-08-19T15:07:51.054Z,1.10
2018-08-19T15:10:23.227Z,1.00
2018-08-19T15:12:52.460Z,1.00
2018-08-19T15:15:21.022Z,1.00
2018-08-19T15:17:53.647Z,1.00
2018-08-19T15:20:26.837Z,1.00
2018-08-19T15:23:04.741Z,1.00
2018-08-19T15:25:33.567Z,1.00
2018-08-19T15:28:02.168Z,1.00
2018-08-19T15:30:30.782Z,1.30
2018-08-19T15:33:00.131Z,1.00
2018-08-19T15:35:28.694Z,1.00
2018-08-19T15:37:57.224Z,1.00
2018-08-19T15:40:34.902Z,1.00
2018-08-19T15:43:03.612Z,1.00
2018-08-19T15:45:32.607Z,1.00
2018-08-19T15:48:01.448Z,1.00
2018-08-19T15:50:30.356Z,1.00
2018-08-19T15:52:59.650Z,1.00
2018-08-19T15:55:28.186Z,1.00
2018-08-19T15:57:59.376Z,1.80
2018-08-19T16:00:28.294Z,1.40
2018-08-19T16:02:58.079Z,2.00
2018-08-19T16:05:26.579Z,1.90
2018-08-19T16:07:55.076Z,1.90
2018-08-19T16:10:25.759Z,1.80
2018-08-19T16:12:56.935Z,1.30
2018-08-19T16:15:27.125Z,1.50
2018-08-19T16:17:56.655Z,1.80
2018-08-19T16:20:25.852Z,1.60
2018-08-19T16:22:54.240Z,1.80
2018-08-19T16:25:22.679Z,1.90
2018-08-19T16:27:51.919Z,1.80
2018-08-19T16:30:20.933Z,1.80
2018-08-19T16:32:49.541Z,2.30
2018-08-19T16:35:21.116Z,2.50
2018-08-19T16:37:50.009Z,2.50
2018-08-19T16:40:18.710Z,2.70
2018-08-19T16:42:47.145Z,3.10
2018-08-19T16:45:16.813Z,3.50
2018-08-19T16:47:45.780Z,3.60
2018-08-19T16:50:14.535Z,3.70
2018-08-19T16:52:43.677Z,4.30
2018-08-19T16:55:12.096Z,4.60
2018-08-19T16:57:42.153Z,4.80
2018-08-19T17:00:10.803Z,5.40
2018-08-19T17:02:39.587Z,5.30
2018-08-19T17:05:17.063Z,5.40
2018-08-19T17:07:45.475Z,5.70
2018-08-19T17:10:14.012Z,5.90
2018-08-19T17:12:42.313Z,6.00
2018-08-19T17:15:10.781Z,6.10
2018-08-19T17:17:39.184Z,6.40
2018-08-19T17:20:08.471Z,6.60
2018-08-19T17:22:37.245Z,6.80
2018-08-19T17:25:06.262Z,7.10
2018-08-19T17:27:34.618Z,7.30
2018-08-19T17:30:05.473Z,7.40
2018-08-19T17:32:33.948Z,7.70
2018-08-19T17:35:02.289Z,8.00
2018-08-19T17:37:30.823Z,8.50
2018-08-19T17:39:59.864Z,9.10
2018-08-19T17:42:28.330Z,9.20
2018-08-19T17:44:56.831Z,9.50
2018-08-19T17:47:25.242Z,9.90
2018-08-19T17:49:53.953Z,10.30
2018-08-19T17:52:22.671Z,10.30
2018-08-19T17:54:51.125Z,10.40
2018-08-19T17:57:19.468Z,10.30
2018-08-19T17:59:48.159Z,10.30
2018-08-19T18:02:16.709Z,10.90
2018-08-19T18:04:46.241Z,11.10
2018-08-19T18:07:20.382Z,11.60
2018-08-19T18:09:52.921Z,11.80
2018-08-19T18:12:21.843Z,11.90
2018-08-19T18:14:50.431Z,12.20
2018-08-19T18:17:19.201Z,12.70
2018-08-19T18:19:47.739Z,12.90
2018-08-19T18:22:18.593Z,13.20
2018-08-19T18:24:52.186Z,13.40
2018-08-19T18:27:20.933Z,13.80
2018-08-19T18:29:49.340Z,14.30
2018-08-19T18:32:18.158Z,14.80
2018-08-19T18:34:47.790Z,15.10
2018-08-19T18:37:16.379Z,15.50
2018-08-19T18:39:44.769Z,15.80
2018-08-19T18:42:19.423Z,16.10
2018-08-19T18:44:48.572Z,16.50
2018-08-19T18:47:17.349Z,17.20
2018-08-19T18:49:45.780Z,17.60
2018-08-19T18:52:18.452Z,18.00
2018-08-19T18:54:48.123Z,18.00
2018-08-19T18:57:17.052Z,18.50
2018-08-19T18:59:45.352Z,19.00
2018-08-19T19:02:13.823Z,19.40
2018-08-19T19:04:42.309Z,20.00
2018-08-19T19:07:10.760Z,19.90
2018-08-19T19:09:43.427Z,20.20
2018-08-19T19:12:12.046Z,20.90
2018-08-19T19:14:40.897Z,21.10
2018-08-19T19:17:09.385Z,21.40
2018-08-19T19:19:41.907Z,22.80
2018-08-19T19:22:11.913Z,22.80
2018-08-19T19:24:41.196Z,23.60
2018-08-19T19:27:10.375Z,23.80
2018-08-19T19:29:39.038Z,24.00
2018-08-19T19:32:15.052Z,24.40
2018-08-19T19:34:43.482Z,25.20
2018-08-19T19:37:12.778Z,25.50
2018-08-19T19:39:41.401Z,25.90
2018-08-19T19:42:10.848Z,26.60
2018-08-19T19:44:39.359Z,27.50
2018-08-19T19:47:08.952Z,28.10
2018-08-19T19:49:45.366Z,28.90
2018-08-19T19:52:13.719Z,29.30
2018-08-19T19:54:42.125Z,29.50
2018-08-19T19:57:10.473Z,30.20
2018-08-19T19:59:38.880Z,30.30
2018-08-19T20:02:11.328Z,31.30
2018-08-19T20:04:39.848Z,31.40
2018-08-19T20:07:09.044Z,32.20
2018-08-19T20:09:37.466Z,34.30
2018-08-19T20:12:09.086Z,34.90
2018-08-19T20:14:41.632Z,35.40
2018-08-19T20:17:10.149Z,35.40
2018-08-19T20:19:38.562Z,36.00
2018-08-19T20:22:11.516Z,36.80
2018-08-19T20:24:39.896Z,36.90
2018-08-19T20:27:08.685Z,39.10
2018-08-19T20:29:37.331Z,40.40
2018-08-19T20:32:05.902Z,41.00
2018-08-19T20:34:34.481Z,41.70
2018-08-19T20:37:02.841Z,42.10
2018-08-19T20:39:31.485Z,42.60
2018-08-19T20:42:02.994Z,42.80
2018-08-19T20:44:31.371Z,43.50
2018-08-19T20:46:59.972Z,44.30
2018-08-19T20:49:28.465Z,44.60
2018-08-19T20:51:57.520Z,45.20
2018-08-19T20:54:25.853Z,45.70
2018-08-19T20:56:54.382Z,47.50
2018-08-19T20:59:27.058Z,48.20
2018-08-19T21:01:55.790Z,50.10
2018-08-19T21:04:24.299Z,52.10
2018-08-19T21:06:52.916Z,55.10
2018-08-19T21:09:21.630Z,55.00
2018-08-19T21:11:50.261Z,56.90
2018-08-19T21:14:19.945Z,58.80
2018-08-19T21:16:48.290Z,59.00
2018-08-19T21:19:16.860Z,60.20
2018-08-19T21:21:45.464Z,62.80
2018-08-19T21:24:13.672Z,63.60
2018-08-19T21:26:49.319Z,65.00
2018-08-19T21:29:18.060Z,66.50
2018-08-19T21:31:46.609Z,67.90
2018-08-19T21:34:15.333Z,68.20
2018-08-19T21:36:44.036Z,68.90
2018-08-19T21:39:12.641Z,70.10
2018-08-19T21:41:47.319Z,69.30
2018-08-19T21:44:16.440Z,68.40
2018-08-19T21:46:45.536Z,68.60
2018-08-19T21:49:14.927Z,67.70
2018-08-19T21:51:43.308Z,69.00
2018-08-19T21:54:13.129Z,69.60
2018-08-19T21:56:41.936Z,70.60
2018-08-19T21:59:14.802Z,71.40
2018-08-19T22:01:49.393Z,72.40
2018-08-19T22:04:18.398Z,72.80
2018-08-19T22:06:47.354Z,73.60
2018-08-19T22:09:24.964Z,74.70
2018-08-19T22:11:55.218Z,74.40
2018-08-19T22:14:24.136Z,74.90
2018-08-19T22:16:56.791Z,74.50
2018-08-19T22:19:25.572Z,74.40
2018-08-19T22:21:54.005Z,74.30
2018-08-19T22:24:22.429Z,74.70
2018-08-19T22:26:50.855Z,75.30
2018-08-19T22:29:23.311Z,75.20
2018-08-19T22:31:53.039Z,75.20
2018-08-19T22:34:21.581Z,76.70
2018-08-19T22:36:50.135Z,76.90
2018-08-19T22:39:20.084Z,76.70
2018-08-19T22:41:49.189Z,77.80
2018-08-19T22:44:17.934Z,77.20
2018-08-19T22:46:46.611Z,77.00
2018-08-19T22:49:15.003Z,76.90
2018-08-19T22:51:43.507Z,77.50
2018-08-19T22:54:11.993Z,77.20
2018-08-19T22:56:40.580Z,77.00
2018-08-19T22:59:09.815Z,76.90
2018-08-19T23:01:42.362Z,77.00
2018-08-19T23:04:10.831Z,77.20
2018-08-19T23:06:39.404Z,77.20
2018-08-19T23:09:10.815Z,76.60
2018-08-19T23:11:43.670Z,75.50
2018-08-19T23:14:20.833Z,75.40
2018-08-19T23:16:49.225Z,76.10
2018-08-19T23:19:19.394Z,75.40
2018-08-19T23:21:47.955Z,75.40
2018-08-19T23:24:16.499Z,75.40
2018-08-19T23:26:44.956Z,75.30
2018-08-19T23:29:13.363Z,74.60
2018-08-19T23:31:43.962Z,75.20
2018-08-19T23:34:12.467Z,74.50
2018-08-19T23:36:40.855Z,74.20
2018-08-19T23:39:10.176Z,74.30
2018-08-19T23:41:38.601Z,75.20
2018-08-19T23:44:07.187Z,75.40
2018-08-19T23:46:35.547Z,75.40
2018-08-19T23:49:03.943Z,75.50
2018-08-19T23:51:32.622Z,75.50
2018-08-19T23:54:02.304Z,75.50
2018-08-19T23:56:31.433Z,75.50
2018-08-19T23:59:00.664Z,75.50
